sensor_id;sensor_type;location;lat;lon;timestamp;pressure;altitude;pressure_sealevel;temperature;humidity
54850;BME280;47660;51.334;12.396;2023-02-28T00:00:08;101616.28;;;4.98;60.16
54850;BME280;47660;51.334;12.396;2023-02-28T00:02:39;101607.06;;;5.19;59.95
54850;BME280;47660;51.334;12.396;2023-02-28T00:05:06;101611.31;;;5.26;59.45
54850;BME280;47660;51.334;12.396;2023-02-28T00:07:32;101617.53;;;5.24;60.18
54850;BME280;47660;51.334;12.396;2023-02-28T00:10:01;101610.16;;;4.97;60.75
54850;BME280;47660;51.334;12.396;2023-02-28T00:12:27;101607.47;;;4.99;61.08
54850;BME280;47660;51.334;12.396;2023-02-28T00:14:52;101598.44;;;5.12;61.44
54850;BME280;47660;51.334;12.396;2023-02-28T00:17:20;101607.13;;;5.17;61.61
54850;BME280;47660;51.334;12.396;2023-02-28T00:19:51;101597.88;;;4.96;61.00
54850;BME280;47660;51.334;12.396;2023-02-28T00:22:20;101602.47;;;4.85;61.37
54850;BME280;47660;51.334;12.396;2023-02-28T00:24:46;101604.34;;;4.80;62.79
54850;BME280;47660;51.334;12.396;2023-02-28T00:27:14;101608.75;;;4.79;62.15
54850;BME280;47660;51.334;12.396;2023-02-28T00:29:42;101605.06;;;4.88;62.63
54850;BME280;47660;51.334;12.396;2023-02-28T00:32:07;101608.31;;;5.01;62.55
54850;BME280;47660;51.334;12.396;2023-02-28T00:34:35;101601.06;;;5.12;63.52
54850;BME280;47660;51.334;12.396;2023-02-28T00:37:07;101602.19;;;4.99;61.87
54850;BME280;47660;51.334;12.396;2023-02-28T00:39:38;101594.00;;;5.13;62.43
54850;BME280;47660;51.334;12.396;2023-02-28T00:42:05;101608.94;;;5.14;62.51
54850;BME280;47660;51.334;12.396;2023-02-28T00:44:31;101603.56;;;5.18;62.01
54850;BME280;47660;51.334;12.396;2023-02-28T00:46:57;101605.75;;;4.98;63.22
54850;BME280;47660;51.334;12.396;2023-02-28T00:49:23;101612.75;;;4.99;62.89
54850;BME280;47660;51.334;12.396;2023-02-28T00:51:49;101605.78;;;4.96;62.55
54850;BME280;47660;51.334;12.396;2023-02-28T00:54:16;101604.75;;;5.03;63.31
54850;BME280;47660;51.334;12.396;2023-02-28T00:56:41;101600.34;;;5.04;63.11
54850;BME280;47660;51.334;12.396;2023-02-28T00:59:09;101608.59;;;4.87;63.98
54850;BME280;47660;51.334;12.396;2023-02-28T01:01:34;101595.66;;;4.74;65.17
54850;BME280;47660;51.334;12.396;2023-02-28T01:04:02;101602.69;;;4.74;65.57
54850;BME280;47660;51.334;12.396;2023-02-28T01:06:28;101598.50;;;5.09;64.00
54850;BME280;47660;51.334;12.396;2023-02-28T01:08:57;101600.53;;;4.95;64.20
54850;BME280;47660;51.334;12.396;2023-02-28T01:11:22;101600.25;;;5.09;64.01
54850;BME280;47660;51.334;12.396;2023-02-28T01:13:48;101595.69;;;5.17;63.49
54850;BME280;47660;51.334;12.396;2023-02-28T01:16:13;101589.69;;;5.10;63.11
54850;BME280;47660;51.334;12.396;2023-02-28T01:18:39;101599.63;;;4.97;63.96
54850;BME280;47660;51.334;12.396;2023-02-28T01:21:11;101595.78;;;5.12;63.83
54850;BME280;47660;51.334;12.396;2023-02-28T01:23:37;101598.50;;;5.08;63.71
54850;BME280;47660;51.334;12.396;2023-02-28T01:26:07;101598.38;;;5.14;65.40
54850;BME280;47660;51.334;12.396;2023-02-28T01:28:36;101594.72;;;5.21;63.56
54850;BME280;47660;51.334;12.396;2023-02-28T01:31:02;101594.63;;;4.82;65.06
54850;BME280;47660;51.334;12.396;2023-02-28T01:33:27;101602.97;;;5.04;64.52
54850;BME280;47660;51.334;12.396;2023-02-28T01:36:03;101597.47;;;5.15;63.96
54850;BME280;47660;51.334;12.396;2023-02-28T01:38:29;101593.41;;;5.00;64.98
54850;BME280;47660;51.334;12.396;2023-02-28T01:40:55;101597.41;;;5.18;64.65
54850;BME280;47660;51.334;12.396;2023-02-28T01:43:26;101587.22;;;5.01;65.58
54850;BME280;47660;51.334;12.396;2023-02-28T01:45:55;101592.50;;;5.01;64.96
54850;BME280;47660;51.334;12.396;2023-02-28T01:48:29;101591.84;;;4.89;65.51
54850;BME280;47660;51.334;12.396;2023-02-28T01:50:59;101592.44;;;5.04;65.16
54850;BME280;47660;51.334;12.396;2023-02-28T01:53:37;101588.94;;;5.03;65.19
54850;BME280;47660;51.334;12.396;2023-02-28T01:56:06;101579.22;;;5.07;65.01
54850;BME280;47660;51.334;12.396;2023-02-28T01:58:33;101578.44;;;5.02;65.27
54850;BME280;47660;51.334;12.396;2023-02-28T02:00:59;101581.28;;;4.91;65.43
54850;BME280;47660;51.334;12.396;2023-02-28T02:03:25;101575.97;;;4.94;65.86
54850;BME280;47660;51.334;12.396;2023-02-28T02:05:50;101574.16;;;4.96;66.65
54850;BME280;47660;51.334;12.396;2023-02-28T02:08:20;101570.94;;;4.82;66.31
54850;BME280;47660;51.334;12.396;2023-02-28T02:10:52;101572.38;;;4.98;66.09
54850;BME280;47660;51.334;12.396;2023-02-28T02:27:06;101556.63;;;4.95;65.67
54850;BME280;47660;51.334;12.396;2023-02-28T02:29:38;101559.03;;;5.06;65.87
54850;BME280;47660;51.334;12.396;2023-02-28T02:32:28;101565.16;;;5.06;65.53
54850;BME280;47660;51.334;12.396;2023-02-28T02:35:09;101558.59;;;4.82;66.24
54850;BME280;47660;51.334;12.396;2023-02-28T02:40:25;101564.66;;;4.89;66.19
54850;BME280;47660;51.334;12.396;2023-02-28T02:42:59;101559.28;;;4.94;66.75
54850;BME280;47660;51.334;12.396;2023-02-28T02:45:34;101557.53;;;4.93;65.23
54850;BME280;47660;51.334;12.396;2023-02-28T02:48:06;101563.94;;;4.81;65.89
54850;BME280;47660;51.334;12.396;2023-02-28T02:50:45;101566.50;;;4.84;67.15
54850;BME280;47660;51.334;12.396;2023-02-28T02:53:13;101571.09;;;4.74;67.49
54850;BME280;47660;51.334;12.396;2023-02-28T02:55:43;101572.91;;;4.70;67.91
54850;BME280;47660;51.334;12.396;2023-02-28T02:58:15;101566.09;;;4.58;69.23
54850;BME280;47660;51.334;12.396;2023-02-28T03:00:45;101575.00;;;4.53;69.10
54850;BME280;47660;51.334;12.396;2023-02-28T03:03:13;101573.31;;;4.47;69.94
54850;BME280;47660;51.334;12.396;2023-02-28T03:05:47;101575.09;;;4.46;69.81
54850;BME280;47660;51.334;12.396;2023-02-28T03:08:15;101572.53;;;4.43;69.44
54850;BME280;47660;51.334;12.396;2023-02-28T03:10:48;101571.66;;;4.43;69.85
54850;BME280;47660;51.334;12.396;2023-02-28T03:21:38;101578.69;;;4.42;70.22
54850;BME280;47660;51.334;12.396;2023-02-28T03:24:11;101570.53;;;4.56;69.58
54850;BME280;47660;51.334;12.396;2023-02-28T03:26:42;101575.63;;;4.64;68.51
54850;BME280;47660;51.334;12.396;2023-02-28T03:31:53;101583.69;;;4.56;69.13
54850;BME280;47660;51.334;12.396;2023-02-28T03:34:38;101584.66;;;4.52;69.99
54850;BME280;47660;51.334;12.396;2023-02-28T03:37:10;101588.22;;;4.48;69.87
54850;BME280;47660;51.334;12.396;2023-02-28T03:39:42;101579.66;;;4.37;70.67
54850;BME280;47660;51.334;12.396;2023-02-28T03:42:18;101572.63;;;4.37;71.45
54850;BME280;47660;51.334;12.396;2023-02-28T03:44:49;101574.13;;;4.52;71.04
54850;BME280;47660;51.334;12.396;2023-02-28T03:47:30;101574.53;;;4.29;71.34
54850;BME280;47660;51.334;12.396;2023-02-28T03:50:03;101575.66;;;4.14;72.59
54850;BME280;47660;51.334;12.396;2023-02-28T03:52:38;101578.94;;;4.28;72.25
54850;BME280;47660;51.334;12.396;2023-02-28T03:55:09;101580.72;;;4.26;73.40
54850;BME280;47660;51.334;12.396;2023-02-28T03:58:17;101575.28;;;4.36;71.57
54850;BME280;47660;51.334;12.396;2023-02-28T04:00:50;101579.53;;;4.43;71.01
54850;BME280;47660;51.334;12.396;2023-02-28T04:03:21;101582.31;;;4.35;72.71
54850;BME280;47660;51.334;12.396;2023-02-28T04:05:54;101582.13;;;4.48;70.86
54850;BME280;47660;51.334;12.396;2023-02-28T04:08:21;101588.47;;;4.34;71.49
54850;BME280;47660;51.334;12.396;2023-02-28T04:10:52;101585.69;;;4.42;71.32
54850;BME280;47660;51.334;12.396;2023-02-28T04:13:19;101585.69;;;4.42;70.73
54850;BME280;47660;51.334;12.396;2023-02-28T04:15:44;101580.44;;;4.42;70.15
54850;BME280;47660;51.334;12.396;2023-02-28T04:18:10;101589.19;;;4.44;71.37
54850;BME280;47660;51.334;12.396;2023-02-28T04:20:35;101584.91;;;4.38;70.37
54850;BME280;47660;51.334;12.396;2023-02-28T04:23:03;101579.06;;;4.69;68.71
54850;BME280;47660;51.334;12.396;2023-02-28T04:25:29;101589.81;;;4.58;68.02
54850;BME280;47660;51.334;12.396;2023-02-28T04:27:54;101591.06;;;4.37;70.26
54850;BME280;47660;51.334;12.396;2023-02-28T04:30:20;101598.22;;;4.30;71.40
54850;BME280;47660;51.334;12.396;2023-02-28T04:32:45;101594.63;;;4.33;70.02
54850;BME280;47660;51.334;12.396;2023-02-28T04:35:10;101599.59;;;4.52;69.69
54850;BME280;47660;51.334;12.396;2023-02-28T04:37:38;101600.72;;;4.37;69.19
54850;BME280;47660;51.334;12.396;2023-02-28T04:40:07;101601.78;;;4.26;68.37
54850;BME280;47660;51.334;12.396;2023-02-28T04:42:33;101599.09;;;4.29;68.90
54850;BME280;47660;51.334;12.396;2023-02-28T04:45:04;101601.84;;;4.22;69.29
54850;BME280;47660;51.334;12.396;2023-02-28T04:47:30;101597.50;;;4.19;68.35
54850;BME280;47660;51.334;12.396;2023-02-28T04:49:56;101603.63;;;4.20;68.50
54850;BME280;47660;51.334;12.396;2023-02-28T04:52:21;101602.56;;;4.31;67.49
54850;BME280;47660;51.334;12.396;2023-02-28T04:54:47;101596.56;;;4.23;67.98
54850;BME280;47660;51.334;12.396;2023-02-28T04:57:15;101601.78;;;4.26;68.12
54850;BME280;47660;51.334;12.396;2023-02-28T04:59:41;101604.22;;;4.36;66.64
54850;BME280;47660;51.334;12.396;2023-02-28T05:02:06;101595.69;;;4.24;66.96
54850;BME280;47660;51.334;12.396;2023-02-28T05:04:37;101601.00;;;4.20;66.53
54850;BME280;47660;51.334;12.396;2023-02-28T05:07:03;101593.09;;;4.21;66.71
54850;BME280;47660;51.334;12.396;2023-02-28T05:09:29;101601.78;;;4.26;65.98
54850;BME280;47660;51.334;12.396;2023-02-28T05:11:55;101600.88;;;4.27;66.24
54850;BME280;47660;51.334;12.396;2023-02-28T05:14:21;101598.31;;;4.24;66.81
54850;BME280;47660;51.334;12.396;2023-02-28T05:16:46;101604.22;;;4.37;64.69
54850;BME280;47660;51.334;12.396;2023-02-28T05:19:14;101610.25;;;4.44;63.83
54850;BME280;47660;51.334;12.396;2023-02-28T05:21:41;101611.22;;;4.37;63.99
54850;BME280;47660;51.334;12.396;2023-02-28T05:24:10;101607.00;;;4.28;63.27
54850;BME280;47660;51.334;12.396;2023-02-28T05:26:38;101611.97;;;4.45;62.20
54850;BME280;47660;51.334;12.396;2023-02-28T05:29:06;101610.28;;;4.41;62.71
54850;BME280;47660;51.334;12.396;2023-02-28T05:31:35;101611.97;;;4.45;61.42
54850;BME280;47660;51.334;12.396;2023-02-28T05:34:01;101607.94;;;4.24;62.42
54850;BME280;47660;51.334;12.396;2023-02-28T05:36:29;101608.59;;;4.38;62.58
54850;BME280;47660;51.334;12.396;2023-02-28T05:38:55;101616.50;;;4.38;61.99
54850;BME280;47660;51.334;12.396;2023-02-28T05:41:21;101612.28;;;4.28;62.62
54850;BME280;47660;51.334;12.396;2023-02-28T05:43:47;101613.84;;;4.38;61.03
54850;BME280;47660;51.334;12.396;2023-02-28T05:46:13;101611.28;;;4.35;60.67
54850;BME280;47660;51.334;12.396;2023-02-28T05:48:40;101620.03;;;4.36;60.80
54850;BME280;47660;51.334;12.396;2023-02-28T05:51:08;101624.22;;;4.48;61.13
54850;BME280;47660;51.334;12.396;2023-02-28T05:53:33;101627.97;;;4.34;60.52
54850;BME280;47660;51.334;12.396;2023-02-28T05:56:02;101628.91;;;4.30;60.51
54850;BME280;47660;51.334;12.396;2023-02-28T05:58:28;101623.28;;;4.50;60.29
54850;BME280;47660;51.334;12.396;2023-02-28T06:00:59;101626.31;;;4.28;60.50
54850;BME280;47660;51.334;12.396;2023-02-28T06:03:27;101637.09;;;4.11;61.33
54850;BME280;47660;51.334;12.396;2023-02-28T06:05:53;101643.91;;;4.26;62.00
54850;BME280;47660;51.334;12.396;2023-02-28T06:08:19;101639.56;;;4.22;61.28
54850;BME280;47660;51.334;12.396;2023-02-28T06:10:47;101640.66;;;4.09;63.14
54850;BME280;47660;51.334;12.396;2023-02-28T06:13:12;101649.25;;;4.19;62.77
54850;BME280;47660;51.334;12.396;2023-02-28T06:15:40;101645.06;;;4.07;63.34
54850;BME280;47660;51.334;12.396;2023-02-28T06:18:06;101658.09;;;4.14;63.71
54850;BME280;47660;51.334;12.396;2023-02-28T06:20:31;101652.69;;;4.24;62.89
54850;BME280;47660;51.334;12.396;2023-02-28T06:22:57;101654.69;;;4.09;63.32
54850;BME280;47660;51.334;12.396;2023-02-28T06:25:26;101664.19;;;4.16;64.51
54850;BME280;47660;51.334;12.396;2023-02-28T06:27:52;101669.69;;;4.03;64.65
54850;BME280;47660;51.334;12.396;2023-02-28T06:30:20;101667.25;;;3.89;64.25
54850;BME280;47660;51.334;12.396;2023-02-28T06:32:55;101668.16;;;3.88;65.93
54850;BME280;47660;51.334;12.396;2023-02-28T06:35:23;101678.47;;;4.03;66.06
54850;BME280;47660;51.334;12.396;2023-02-28T06:37:51;101676.63;;;4.07;65.73
54850;BME280;47660;51.334;12.396;2023-02-28T06:40:19;101675.84;;;4.01;65.67
54850;BME280;47660;51.334;12.396;2023-02-28T06:42:48;101676.69;;;4.04;67.06
54850;BME280;47660;51.334;12.396;2023-02-28T06:45:13;101686.69;;;3.78;67.75
54850;BME280;47660;51.334;12.396;2023-02-28T06:47:40;101683.88;;;3.91;67.99
54850;BME280;47660;51.334;12.396;2023-02-28T06:50:08;101686.41;;;4.00;67.48
54850;BME280;47660;51.334;12.396;2023-02-28T06:52:34;101685.53;;;3.98;66.11
54850;BME280;47660;51.334;12.396;2023-02-28T06:55:06;101687.91;;;4.15;66.57
54850;BME280;47660;51.334;12.396;2023-02-28T06:57:33;101694.97;;;4.13;66.09
54850;BME280;47660;51.334;12.396;2023-02-28T07:00:00;101694.19;;;4.05;66.69
54850;BME280;47660;51.334;12.396;2023-02-28T07:02:27;101694.19;;;4.06;66.80
54850;BME280;47660;51.334;12.396;2023-02-28T07:04:54;101697.53;;;4.18;66.56
54850;BME280;47660;51.334;12.396;2023-02-28T07:07:20;101693.28;;;4.09;66.07
54850;BME280;47660;51.334;12.396;2023-02-28T07:09:48;101707.59;;;3.88;67.12
54850;BME280;47660;51.334;12.396;2023-02-28T07:12:13;101703.66;;;4.18;66.74
54850;BME280;47660;51.334;12.396;2023-02-28T07:14:39;101705.31;;;4.24;66.09
54850;BME280;47660;51.334;12.396;2023-02-28T07:17:07;101704.47;;;4.23;67.12
54850;BME280;47660;51.334;12.396;2023-02-28T07:19:32;101699.81;;;3.78;66.78
54850;BME280;47660;51.334;12.396;2023-02-28T07:22:00;101710.00;;;4.06;64.86
54850;BME280;47660;51.334;12.396;2023-02-28T07:24:28;101700.09;;;4.21;65.45
54850;BME280;47660;51.334;12.396;2023-02-28T07:26:54;101704.47;;;4.22;65.53
54850;BME280;47660;51.334;12.396;2023-02-28T07:29:22;101707.78;;;4.35;65.11
54850;BME280;47660;51.334;12.396;2023-02-28T07:31:49;101702.88;;;4.13;64.13
54850;BME280;47660;51.334;12.396;2023-02-28T07:34:18;101706.38;;;4.12;62.20
54850;BME280;47660;51.334;12.396;2023-02-28T07:36:44;101703.16;;;4.51;62.72
54850;BME280;47660;51.334;12.396;2023-02-28T07:39:09;101707.72;;;4.38;62.04
54850;BME280;47660;51.334;12.396;2023-02-28T07:41:35;101710.38;;;4.39;63.26
54850;BME280;47660;51.334;12.396;2023-02-28T07:44:04;101713.66;;;4.54;61.56
54850;BME280;47660;51.334;12.396;2023-02-28T07:46:30;101717.50;;;4.31;61.31
54850;BME280;47660;51.334;12.396;2023-02-28T07:49:00;101707.53;;;4.52;61.13
54850;BME280;47660;51.334;12.396;2023-02-28T07:51:29;101715.13;;;4.70;59.87
54850;BME280;47660;51.334;12.396;2023-02-28T07:53:57;101716.47;;;5.84;100.00
54850;BME280;47660;51.334;12.396;2023-02-28T07:56:23;101712.94;;;5.85;99.23
54850;BME280;47660;51.334;12.396;2023-02-28T07:58:49;101706.41;;;6.77;100.00
54850;BME280;47660;51.334;12.396;2023-02-28T08:01:14;101706.03;;;6.91;100.00
54850;BME280;47660;51.334;12.396;2023-02-28T08:03:40;101707.66;;;6.97;89.46
54850;BME280;47660;51.334;12.396;2023-02-28T08:06:15;101716.44;;;6.63;85.92
54850;BME280;47660;51.334;12.396;2023-02-28T08:08:41;101709.16;;;6.36;75.29
54850;BME280;47660;51.334;12.396;2023-02-28T08:11:07;101709.81;;;6.08;74.51
54850;BME280;47660;51.334;12.396;2023-02-28T08:13:32;101707.81;;;6.56;71.16
54850;BME280;47660;51.334;12.396;2023-02-28T08:15:57;101715.91;;;6.84;75.76
54850;BME280;47660;51.334;12.396;2023-02-28T08:18:23;101708.06;;;6.81;70.85
54850;BME280;47660;51.334;12.396;2023-02-28T08:20:52;101704.88;;;7.02;91.07
54850;BME280;47660;51.334;12.396;2023-02-28T08:23:20;101700.13;;;7.46;81.98
54850;BME280;47660;51.334;12.396;2023-02-28T08:25:53;101692.06;;;7.51;65.08
54850;BME280;47660;51.334;12.396;2023-02-28T08:28:18;101702.34;;;7.62;73.25
54850;BME280;47660;51.334;12.396;2023-02-28T08:30:44;101706.97;;;7.85;87.26
54850;BME280;47660;51.334;12.396;2023-02-28T08:33:09;101694.13;;;8.56;64.31
54850;BME280;47660;51.334;12.396;2023-02-28T08:35:37;101702.75;;;7.78;66.30
54850;BME280;47660;51.334;12.396;2023-02-28T08:38:02;101698.22;;;8.11;56.91
54850;BME280;47660;51.334;12.396;2023-02-28T08:40:28;101697.59;;;6.77;51.50
54850;BME280;47660;51.334;12.396;2023-02-28T08:42:53;101699.25;;;6.81;50.36
54850;BME280;47660;51.334;12.396;2023-02-28T08:45:21;101697.25;;;6.18;50.61
54850;BME280;47660;51.334;12.396;2023-02-28T08:47:49;101700.63;;;5.84;48.43
54850;BME280;47660;51.334;12.396;2023-02-28T08:50:14;101705.09;;;5.80;49.03
54850;BME280;47660;51.334;12.396;2023-02-28T08:52:43;101707.06;;;5.71;48.91
54850;BME280;47660;51.334;12.396;2023-02-28T08:55:10;101706.97;;;6.18;47.85
54850;BME280;47660;51.334;12.396;2023-02-28T08:57:36;101713.50;;;6.01;48.88
54850;BME280;47660;51.334;12.396;2023-02-28T09:00:04;101707.34;;;5.99;47.64
54850;BME280;47660;51.334;12.396;2023-02-28T09:02:33;101707.25;;;6.04;47.80
54850;BME280;47660;51.334;12.396;2023-02-28T09:04:59;101711.63;;;6.06;47.50
54850;BME280;47660;51.334;12.396;2023-02-28T09:07:25;101711.91;;;5.91;48.41
54850;BME280;47660;51.334;12.396;2023-02-28T09:09:53;101713.84;;;5.83;48.24
54850;BME280;47660;51.334;12.396;2023-02-28T09:12:24;101711.41;;;6.16;47.27
54850;BME280;47660;51.334;12.396;2023-02-28T09:14:50;101712.63;;;5.99;48.03
54850;BME280;47660;51.334;12.396;2023-02-28T09:17:16;101715.56;;;5.85;47.14
54850;BME280;47660;51.334;12.396;2023-02-28T09:19:42;101710.13;;;5.93;47.81
54850;BME280;47660;51.334;12.396;2023-02-28T09:22:08;101710.41;;;6.58;47.53
54850;BME280;47660;51.334;12.396;2023-02-28T09:24:35;101712.41;;;6.48;47.42
54850;BME280;47660;51.334;12.396;2023-02-28T09:27:01;101723.72;;;6.53;47.09
54850;BME280;47660;51.334;12.396;2023-02-28T09:29:29;101718.59;;;6.47;47.55
54850;BME280;47660;51.334;12.396;2023-02-28T09:31:55;101711.78;;;6.36;47.69
54850;BME280;47660;51.334;12.396;2023-02-28T09:37:13;101707.06;;;6.13;45.49
54850;BME280;47660;51.334;12.396;2023-02-28T09:39:38;101713.13;;;6.89;45.69
54850;BME280;47660;51.334;12.396;2023-02-28T09:42:20;101713.25;;;6.50;45.10
54850;BME280;47660;51.334;12.396;2023-02-28T09:44:47;101724.16;;;6.34;45.30
54850;BME280;47660;51.334;12.396;2023-02-28T09:47:39;101709.88;;;6.79;43.23
54850;BME280;47660;51.334;12.396;2023-02-28T09:53:06;101712.75;;;6.34;45.37
54850;BME280;47660;51.334;12.396;2023-02-28T09:55:45;101713.16;;;6.15;45.71
54850;BME280;47660;51.334;12.396;2023-02-28T09:58:32;101721.25;;;6.47;45.15
54850;BME280;47660;51.334;12.396;2023-02-28T10:01:34;101715.31;;;5.98;44.72
54850;BME280;47660;51.334;12.396;2023-02-28T10:04:40;101711.56;;;6.08;44.70
54850;BME280;47660;51.334;12.396;2023-02-28T10:09:55;101709.25;;;6.69;44.12
54850;BME280;47660;51.334;12.396;2023-02-28T10:12:23;101705.59;;;6.37;43.76
54850;BME280;47660;51.334;12.396;2023-02-28T10:14:52;101705.94;;;6.96;42.99
54850;BME280;47660;51.334;12.396;2023-02-28T10:17:26;101711.03;;;7.35;42.36
54850;BME280;47660;51.334;12.396;2023-02-28T10:20:01;101709.47;;;6.24;43.31
54850;BME280;47660;51.334;12.396;2023-02-28T10:25:50;101711.56;;;6.46;42.76
54850;BME280;47660;51.334;12.396;2023-02-28T10:28:20;101706.91;;;6.57;43.05
54850;BME280;47660;51.334;12.396;2023-02-28T10:30:51;101708.66;;;6.93;43.32
54850;BME280;47660;51.334;12.396;2023-02-28T10:33:24;101702.09;;;7.06;42.78
54850;BME280;47660;51.334;12.396;2023-02-28T10:35:50;101705.63;;;6.74;42.45
54850;BME280;47660;51.334;12.396;2023-02-28T10:38:24;101704.13;;;6.63;43.34
54850;BME280;47660;51.334;12.396;2023-02-28T10:40:50;101699.59;;;7.02;42.77
54850;BME280;47660;51.334;12.396;2023-02-28T10:55:56;101690.81;;;7.33;43.29
54850;BME280;47660;51.334;12.396;2023-02-28T10:58:25;101689.63;;;7.11;43.91
54850;BME280;47660;51.334;12.396;2023-02-28T11:00:53;101680.16;;;7.36;43.47
54850;BME280;47660;51.334;12.396;2023-02-28T11:03:29;101679.38;;;7.32;43.00
54850;BME280;47660;51.334;12.396;2023-02-28T11:05:58;101675.69;;;7.38;42.55
54850;BME280;47660;51.334;12.396;2023-02-28T11:08:26;101676.50;;;7.40;42.81
54850;BME280;47660;51.334;12.396;2023-02-28T11:10:58;101666.72;;;7.73;41.95
54850;BME280;47660;51.334;12.396;2023-02-28T11:13:31;101666.44;;;8.11;42.87
54850;BME280;47660;51.334;12.396;2023-02-28T11:16:01;101666.88;;;7.67;42.95
54850;BME280;47660;51.334;12.396;2023-02-28T11:21:02;101669.81;;;7.58;42.40
54850;BME280;47660;51.334;12.396;2023-02-28T11:23:33;101670.13;;;7.77;42.73
54850;BME280;47660;51.334;12.396;2023-02-28T11:26:09;101667.06;;;7.61;41.91
54850;BME280;47660;51.334;12.396;2023-02-28T11:28:40;101662.81;;;6.94;43.38
54850;BME280;47660;51.334;12.396;2023-02-28T11:31:16;101666.53;;;6.87;44.53
54850;BME280;47660;51.334;12.396;2023-02-28T11:36:26;101651.66;;;7.46;43.46
54850;BME280;47660;51.334;12.396;2023-02-28T11:38:54;101651.53;;;8.36;42.67
54850;BME280;47660;51.334;12.396;2023-02-28T11:47:11;101657.66;;;7.81;42.97
54850;BME280;47660;51.334;12.396;2023-02-28T11:50:20;101657.03;;;7.72;42.75
54850;BME280;47660;51.334;12.396;2023-02-28T11:52:52;101664.41;;;7.63;42.94
54850;BME280;47660;51.334;12.396;2023-02-28T12:06:33;101653.94;;;7.88;43.28
54850;BME280;47660;51.334;12.396;2023-02-28T12:09:29;101643.47;;;8.12;42.75
54850;BME280;47660;51.334;12.396;2023-02-28T12:28:57;101646.94;;;7.25;43.20
54850;BME280;47660;51.334;12.396;2023-02-28T12:31:29;101639.75;;;7.31;43.22
54850;BME280;47660;51.334;12.396;2023-02-28T12:34:13;101634.59;;;7.56;43.37
54850;BME280;47660;51.334;12.396;2023-02-28T12:36:43;101635.31;;;7.61;43.22
54850;BME280;47660;51.334;12.396;2023-02-28T12:39:25;101620.16;;;7.95;43.01
54850;BME280;47660;51.334;12.396;2023-02-28T12:44:37;101623.25;;;7.81;41.95
54850;BME280;47660;51.334;12.396;2023-02-28T12:47:14;101619.31;;;7.66;42.98
54850;BME280;47660;51.334;12.396;2023-02-28T12:50:04;101608.00;;;7.61;42.88
54850;BME280;47660;51.334;12.396;2023-02-28T12:55:42;101601.00;;;7.86;43.65
54850;BME280;47660;51.334;12.396;2023-02-28T12:58:20;101599.88;;;8.22;43.26
54850;BME280;47660;51.334;12.396;2023-02-28T13:01:15;101597.41;;;7.89;44.27
54850;BME280;47660;51.334;12.396;2023-02-28T13:09:12;101594.50;;;7.97;43.53
54850;BME280;47660;51.334;12.396;2023-02-28T13:11:47;101596.59;;;7.58;44.31
54850;BME280;47660;51.334;12.396;2023-02-28T13:19:57;101595.41;;;7.69;43.88
54850;BME280;47660;51.334;12.396;2023-02-28T13:22:49;101587.38;;;8.26;43.35
54850;BME280;47660;51.334;12.396;2023-02-28T13:28:10;101583.22;;;7.63;45.22
54850;BME280;47660;51.334;12.396;2023-02-28T13:33:26;101585.75;;;7.95;43.49
54850;BME280;47660;51.334;12.396;2023-02-28T13:38:41;101578.75;;;8.46;42.75
54850;BME280;47660;51.334;12.396;2023-02-28T13:44:17;101573.69;;;8.13;43.30
54850;BME280;47660;51.334;12.396;2023-02-28T13:57:41;101570.72;;;8.22;43.64
54850;BME280;47660;51.334;12.396;2023-02-28T14:00:20;101564.91;;;8.38;43.47
54850;BME280;47660;51.334;12.396;2023-02-28T14:03:07;101561.19;;;8.43;43.50
54850;BME280;47660;51.334;12.396;2023-02-28T14:05:42;101561.16;;;8.18;43.61
54850;BME280;47660;51.334;12.396;2023-02-28T14:08:31;101552.56;;;8.64;43.40
54850;BME280;47660;51.334;12.396;2023-02-28T14:11:08;101553.44;;;8.64;43.13
54850;BME280;47660;51.334;12.396;2023-02-28T14:13:39;101558.63;;;8.40;43.42
54850;BME280;47660;51.334;12.396;2023-02-28T14:16:16;101546.06;;;9.42;42.50
54850;BME280;47660;51.334;12.396;2023-02-28T14:19:00;101542.44;;;9.67;42.45
54850;BME280;47660;51.334;12.396;2023-02-28T14:21:48;101542.31;;;9.92;40.77
54850;BME280;47660;51.334;12.396;2023-02-28T14:27:14;101542.88;;;11.22;38.47
54850;BME280;47660;51.334;12.396;2023-02-28T14:36:35;101521.66;;;16.07;29.19
54850;BME280;47660;51.334;12.396;2023-02-28T14:39:20;101528.22;;;17.06;28.88
54850;BME280;47660;51.334;12.396;2023-02-28T14:45:36;101521.78;;;16.83;28.14
54850;BME280;47660;51.334;12.396;2023-02-28T14:48:26;101530.38;;;17.01;27.75
54850;BME280;47660;51.334;12.396;2023-02-28T14:51:05;101528.03;;;16.57;28.72
54850;BME280;47660;51.334;12.396;2023-02-28T14:53:40;101521.56;;;16.99;27.97
54850;BME280;47660;51.334;12.396;2023-02-28T14:56:06;101522.28;;;15.97;28.71
54850;BME280;47660;51.334;12.396;2023-02-28T14:58:50;101522.22;;;16.25;29.09
54850;BME280;47660;51.334;12.396;2023-02-28T15:01:26;101532.84;;;14.44;31.11
54850;BME280;47660;51.334;12.396;2023-02-28T15:04:06;101529.88;;;14.49;30.94
54850;BME280;47660;51.334;12.396;2023-02-28T15:07:33;101525.81;;;15.01;31.24
54850;BME280;47660;51.334;12.396;2023-02-28T15:10:08;101530.91;;;14.17;31.67
54850;BME280;47660;51.334;12.396;2023-02-28T15:12:35;101528.22;;;12.74;33.84
54850;BME280;47660;51.334;12.396;2023-02-28T15:15:14;101529.97;;;13.23;33.07
54850;BME280;47660;51.334;12.396;2023-02-28T15:17:39;101526.63;;;13.99;31.75
54850;BME280;47660;51.334;12.396;2023-02-28T15:20:14;101524.81;;;14.44;31.38
54850;BME280;47660;51.334;12.396;2023-02-28T15:22:40;101514.22;;;14.43;30.90
54850;BME280;47660;51.334;12.396;2023-02-28T15:25:17;101517.94;;;13.95;31.82
54850;BME280;47660;51.334;12.396;2023-02-28T15:27:48;101539.75;;;10.74;35.67
54850;BME280;47660;51.334;12.396;2023-02-28T15:30:29;101532.63;;;9.47;38.87